sensor_id;sensor_type;location;lat;lon;timestamp;P1;durP1;ratioP1;P2;durP2;ratioP2
7359;SDS011;3720;48.274;7.796;2023-08-07T00:01:44;3.30;;;1.70;;
7359;SDS011;3720;48.274;7.796;2023-08-07T00:04:16;3.05;;;1.50;;
7359;SDS011;3720;48.274;7.796;2023-08-07T00:06:48;3.03;;;1.45;;
7359;SDS011;3720;48.274;7.796;2023-08-07T00:09:20;8.27;;;1.50;;
7359;SDS011;3720;48.274;7.796;2023-08-07T00:11:52;3.67;;;1.60;;
7359;SDS011;3720;48.274;7.796;2023-08-07T00:14:25;4.72;;;1.63;;
7359;SDS011;3720;48.274;7.796;2023-08-07T00:16:57;1.95;;;1.52;;
7359;SDS011;3720;48.274;7.796;2023-08-07T00:19:29;2.70;;;1.58;;
7359;SDS011;3720;48.274;7.796;2023-08-07T00:22:01;2.28;;;1.60;;
7359;SDS011;3720;48.274;7.796;2023-08-07T00:24:33;4.72;;;1.60;;
7359;SDS011;3720;48.274;7.796;2023-08-07T00:27:05;4.45;;;1.70;;
7359;SDS011;3720;48.274;7.796;2023-08-07T00:29:41;4.60;;;1.65;;
7359;SDS011;3720;48.274;7.796;2023-08-07T00:32:13;3.42;;;1.67;;
7359;SDS011;3720;48.274;7.796;2023-08-07T00:34:45;5.03;;;1.70;;
7359;SDS011;3720;48.274;7.796;2023-08-07T00:37:17;3.10;;;1.55;;
7359;SDS011;3720;48.274;7.796;2023-08-07T00:39:49;2.97;;;1.50;;
7359;SDS011;3720;48.274;7.796;2023-08-07T00:42:21;3.10;;;1.80;;
7359;SDS011;3720;48.274;7.796;2023-08-07T00:44:54;2.95;;;1.50;;
7359;SDS011;3720;48.274;7.796;2023-08-07T00:47:26;2.30;;;1.42;;
7359;SDS011;3720;48.274;7.796;2023-08-07T00:49:57;2.85;;;1.50;;
7359;SDS011;3720;48.274;7.796;2023-08-07T00:52:30;2.70;;;1.73;;
7359;SDS011;3720;48.274;7.796;2023-08-07T00:55:03;4.40;;;1.70;;
7359;SDS011;3720;48.274;7.796;2023-08-07T00:57:36;3.55;;;1.73;;
7359;SDS011;3720;48.274;7.796;2023-08-07T01:00:10;3.97;;;1.63;;
7359;SDS011;3720;48.274;7.796;2023-08-07T01:02:44;2.97;;;1.63;;
7359;SDS011;3720;48.274;7.796;2023-08-07T01:05:18;2.80;;;1.77;;
7359;SDS011;3720;48.274;7.796;2023-08-07T01:07:51;4.18;;;1.92;;
7359;SDS011;3720;48.274;7.796;2023-08-07T01:10:25;3.67;;;1.48;;
7359;SDS011;3720;48.274;7.796;2023-08-07T01:13:08;4.75;;;1.75;;
7359;SDS011;3720;48.274;7.796;2023-08-07T01:15:46;2.92;;;1.70;;
7359;SDS011;3720;48.274;7.796;2023-08-07T01:18:23;5.40;;;1.80;;
7359;SDS011;3720;48.274;7.796;2023-08-07T01:20:57;4.50;;;1.90;;
7359;SDS011;3720;48.274;7.796;2023-08-07T01:23:30;2.83;;;1.60;;
7359;SDS011;3720;48.274;7.796;2023-08-07T01:26:01;3.40;;;1.63;;
7359;SDS011;3720;48.274;7.796;2023-08-07T01:28:36;2.25;;;1.42;;
7359;SDS011;3720;48.274;7.796;2023-08-07T01:31:12;3.58;;;1.70;;
7359;SDS011;3720;48.274;7.796;2023-08-07T01:33:48;2.38;;;1.67;;
7359;SDS011;3720;48.274;7.796;2023-08-07T01:36:28;2.38;;;1.50;;
7359;SDS011;3720;48.274;7.796;2023-08-07T01:39:03;2.80;;;1.63;;
7359;SDS011;3720;48.274;7.796;2023-08-07T01:41:37;4.95;;;1.60;;
7359;SDS011;3720;48.274;7.796;2023-08-07T01:44:09;2.75;;;1.40;;
7359;SDS011;3720;48.274;7.796;2023-08-07T01:46:42;3.45;;;1.58;;
7359;SDS011;3720;48.274;7.796;2023-08-07T01:49:13;4.60;;;1.75;;
7359;SDS011;3720;48.274;7.796;2023-08-07T01:51:45;3.03;;;1.90;;
7359;SDS011;3720;48.274;7.796;2023-08-07T01:54:18;3.42;;;1.80;;
7359;SDS011;3720;48.274;7.796;2023-08-07T01:56:50;4.05;;;1.80;;
7359;SDS011;3720;48.274;7.796;2023-08-07T01:59:22;3.08;;;1.65;;
7359;SDS011;3720;48.274;7.796;2023-08-07T02:01:54;2.92;;;1.60;;
7359;SDS011;3720;48.274;7.796;2023-08-07T02:04:26;3.40;;;1.55;;
7359;SDS011;3720;48.274;7.796;2023-08-07T02:06:58;2.95;;;1.58;;
7359;SDS011;3720;48.274;7.796;2023-08-07T02:09:31;3.08;;;1.90;;
7359;SDS011;3720;48.274;7.796;2023-08-07T02:12:03;4.63;;;1.80;;
7359;SDS011;3720;48.274;7.796;2023-08-07T02:14:36;2.58;;;1.50;;
7359;SDS011;3720;48.274;7.796;2023-08-07T02:17:08;3.75;;;1.60;;
7359;SDS011;3720;48.274;7.796;2023-08-07T02:19:40;4.13;;;1.90;;
7359;SDS011;3720;48.274;7.796;2023-08-07T02:22:12;3.83;;;1.55;;
7359;SDS011;3720;48.274;7.796;2023-08-07T02:24:45;3.50;;;1.80;;
7359;SDS011;3720;48.274;7.796;2023-08-07T02:27:17;5.57;;;1.75;;
7359;SDS011;3720;48.274;7.796;2023-08-07T02:29:48;2.28;;;1.50;;
7359;SDS011;3720;48.274;7.796;2023-08-07T02:32:21;2.03;;;1.50;;
7359;SDS011;3720;48.274;7.796;2023-08-07T02:34:53;2.80;;;1.70;;
7359;SDS011;3720;48.274;7.796;2023-08-07T02:37:24;2.40;;;1.40;;
7359;SDS011;3720;48.274;7.796;2023-08-07T02:39:58;3.58;;;1.80;;
7359;SDS011;3720;48.274;7.796;2023-08-07T02:42:29;2.97;;;1.50;;
7359;SDS011;3720;48.274;7.796;2023-08-07T02:45:01;2.42;;;1.58;;
7359;SDS011;3720;48.274;7.796;2023-08-07T02:47:34;4.68;;;1.98;;
7359;SDS011;3720;48.274;7.796;2023-08-07T02:50:06;4.20;;;1.67;;
7359;SDS011;3720;48.274;7.796;2023-08-07T02:52:38;3.10;;;1.65;;
7359;SDS011;3720;48.274;7.796;2023-08-07T02:55:11;2.70;;;1.73;;
7359;SDS011;3720;48.274;7.796;2023-08-07T02:57:43;4.93;;;1.50;;
7359;SDS011;3720;48.274;7.796;2023-08-07T03:00:15;2.83;;;1.70;;
7359;SDS011;3720;48.274;7.796;2023-08-07T03:02:47;2.78;;;1.60;;
7359;SDS011;3720;48.274;7.796;2023-08-07T03:05:19;1.90;;;1.60;;
7359;SDS011;3720;48.274;7.796;2023-08-07T03:07:51;2.83;;;1.60;;
7359;SDS011;3720;48.274;7.796;2023-08-07T03:10:24;2.00;;;1.50;;
7359;SDS011;3720;48.274;7.796;2023-08-07T03:12:56;4.05;;;1.60;;
7359;SDS011;3720;48.274;7.796;2023-08-07T03:15:28;3.35;;;1.92;;
7359;SDS011;3720;48.274;7.796;2023-08-07T03:17:59;3.53;;;1.65;;
7359;SDS011;3720;48.274;7.796;2023-08-07T03:20:31;2.10;;;1.63;;
7359;SDS011;3720;48.274;7.796;2023-08-07T03:23:03;2.20;;;1.50;;
7359;SDS011;3720;48.274;7.796;2023-08-07T03:25:36;3.38;;;1.70;;
7359;SDS011;3720;48.274;7.796;2023-08-07T03:28:08;2.25;;;1.70;;
7359;SDS011;3720;48.274;7.796;2023-08-07T03:30:40;3.85;;;1.60;;
7359;SDS011;3720;48.274;7.796;2023-08-07T03:33:12;3.10;;;1.67;;
7359;SDS011;3720;48.274;7.796;2023-08-07T03:35:44;3.47;;;1.60;;
7359;SDS011;3720;48.274;7.796;2023-08-07T03:38:16;2.78;;;1.70;;
7359;SDS011;3720;48.274;7.796;2023-08-07T03:40:49;3.28;;;1.77;;
7359;SDS011;3720;48.274;7.796;2023-08-07T03:43:21;2.67;;;1.70;;
7359;SDS011;3720;48.274;7.796;2023-08-07T03:45:53;4.47;;;1.75;;
7359;SDS011;3720;48.274;7.796;2023-08-07T03:48:26;1.83;;;1.63;;
7359;SDS011;3720;48.274;7.796;2023-08-07T03:51:01;3.45;;;2.00;;
7359;SDS011;3720;48.274;7.796;2023-08-07T03:53:34;2.58;;;1.70;;
7359;SDS011;3720;48.274;7.796;2023-08-07T03:56:07;3.38;;;1.80;;
7359;SDS011;3720;48.274;7.796;2023-08-07T03:58:39;4.45;;;2.00;;
7359;SDS011;3720;48.274;7.796;2023-08-07T04:01:11;4.63;;;2.20;;
7359;SDS011;3720;48.274;7.796;2023-08-07T04:03:43;2.67;;;1.98;;
7359;SDS011;3720;48.274;7.796;2023-08-07T04:06:16;3.97;;;1.73;;
7359;SDS011;3720;48.274;7.796;2023-08-07T04:08:48;4.70;;;2.10;;
7359;SDS011;3720;48.274;7.796;2023-08-07T04:11:21;3.83;;;1.70;;
7359;SDS011;3720;48.274;7.796;2023-08-07T04:13:53;4.50;;;2.30;;
7359;SDS011;3720;48.274;7.796;2023-08-07T04:16:25;4.22;;;1.92;;
7359;SDS011;3720;48.274;7.796;2023-08-07T04:18:57;2.20;;;1.70;;
7359;SDS011;3720;48.274;7.796;2023-08-07T04:21:29;4.03;;;2.08;;
7359;SDS011;3720;48.274;7.796;2023-08-07T04:24:01;3.45;;;2.00;;
7359;SDS011;3720;48.274;7.796;2023-08-07T04:26:39;3.63;;;1.80;;
7359;SDS011;3720;48.274;7.796;2023-08-07T04:29:11;3.90;;;2.00;;
7359;SDS011;3720;48.274;7.796;2023-08-07T04:31:43;3.67;;;1.80;;
7359;SDS011;3720;48.274;7.796;2023-08-07T04:34:14;3.83;;;1.85;;
7359;SDS011;3720;48.274;7.796;2023-08-07T04:36:46;3.67;;;2.15;;
7359;SDS011;3720;48.274;7.796;2023-08-07T04:39:20;3.25;;;1.75;;
7359;SDS011;3720;48.274;7.796;2023-08-07T04:41:53;7.13;;;2.13;;
7359;SDS011;3720;48.274;7.796;2023-08-07T04:44:25;3.25;;;1.98;;
7359;SDS011;3720;48.274;7.796;2023-08-07T04:46:57;4.10;;;2.00;;
7359;SDS011;3720;48.274;7.796;2023-08-07T04:49:29;3.67;;;2.05;;
7359;SDS011;3720;48.274;7.796;2023-08-07T04:52:01;5.47;;;2.17;;
7359;SDS011;3720;48.274;7.796;2023-08-07T04:54:33;4.43;;;2.10;;
7359;SDS011;3720;48.274;7.796;2023-08-07T04:57:06;3.20;;;2.20;;
7359;SDS011;3720;48.274;7.796;2023-08-07T04:59:38;2.92;;;2.03;;
7359;SDS011;3720;48.274;7.796;2023-08-07T05:02:10;2.53;;;1.90;;
7359;SDS011;3720;48.274;7.796;2023-08-07T05:04:41;5.18;;;2.40;;
7359;SDS011;3720;48.274;7.796;2023-08-07T05:07:13;3.60;;;1.90;;
7359;SDS011;3720;48.274;7.796;2023-08-07T05:09:46;3.38;;;2.30;;
7359;SDS011;3720;48.274;7.796;2023-08-07T05:12:21;4.35;;;2.13;;
7359;SDS011;3720;48.274;7.796;2023-08-07T05:14:52;5.25;;;2.15;;
7359;SDS011;3720;48.274;7.796;2023-08-07T05:17:24;4.32;;;2.10;;
7359;SDS011;3720;48.274;7.796;2023-08-07T05:19:56;4.10;;;2.30;;
7359;SDS011;3720;48.274;7.796;2023-08-07T05:22:28;5.88;;;2.25;;
7359;SDS011;3720;48.274;7.796;2023-08-07T05:25:00;3.80;;;2.40;;
7359;SDS011;3720;48.274;7.796;2023-08-07T05:27:34;4.13;;;2.25;;
7359;SDS011;3720;48.274;7.796;2023-08-07T05:30:06;3.95;;;2.30;;
7359;SDS011;3720;48.274;7.796;2023-08-07T05:32:38;5.38;;;2.45;;
7359;SDS011;3720;48.274;7.796;2023-08-07T05:35:10;4.00;;;2.53;;
7359;SDS011;3720;48.274;7.796;2023-08-07T05:37:42;3.40;;;2.20;;
7359;SDS011;3720;48.274;7.796;2023-08-07T05:40:14;6.03;;;2.20;;
7359;SDS011;3720;48.274;7.796;2023-08-07T05:42:47;5.43;;;2.13;;
7359;SDS011;3720;48.274;7.796;2023-08-07T05:45:19;3.83;;;2.22;;
7359;SDS011;3720;48.274;7.796;2023-08-07T05:47:51;4.60;;;2.30;;
7359;SDS011;3720;48.274;7.796;2023-08-07T05:50:22;3.72;;;2.10;;
7359;SDS011;3720;48.274;7.796;2023-08-07T05:52:54;4.90;;;2.40;;
7359;SDS011;3720;48.274;7.796;2023-08-07T05:55:26;6.47;;;2.60;;
7359;SDS011;3720;48.274;7.796;2023-08-07T05:57:59;3.97;;;2.30;;
7359;SDS011;3720;48.274;7.796;2023-08-07T06:00:31;7.45;;;2.70;;
7359;SDS011;3720;48.274;7.796;2023-08-07T06:03:03;3.95;;;2.40;;
7359;SDS011;3720;48.274;7.796;2023-08-07T06:05:35;3.40;;;2.00;;
7359;SDS011;3720;48.274;7.796;2023-08-07T06:08:07;3.58;;;2.15;;
7359;SDS011;3720;48.274;7.796;2023-08-07T06:10:39;7.57;;;2.60;;
7359;SDS011;3720;48.274;7.796;2023-08-07T06:13:13;3.13;;;2.30;;
7359;SDS011;3720;48.274;7.796;2023-08-07T06:15:44;7.82;;;2.40;;
7359;SDS011;3720;48.274;7.796;2023-08-07T06:18:16;3.40;;;2.17;;
7359;SDS011;3720;48.274;7.796;2023-08-07T06:20:48;3.55;;;1.83;;
7359;SDS011;3720;48.274;7.796;2023-08-07T06:23:20;4.60;;;2.17;;
7359;SDS011;3720;48.274;7.796;2023-08-07T06:25:52;4.70;;;2.00;;
7359;SDS011;3720;48.274;7.796;2023-08-07T06:28:25;4.28;;;2.00;;
7359;SDS011;3720;48.274;7.796;2023-08-07T06:31:00;4.78;;;1.95;;
7359;SDS011;3720;48.274;7.796;2023-08-07T06:33:33;8.20;;;2.28;;
7359;SDS011;3720;48.274;7.796;2023-08-07T06:36:06;5.00;;;2.30;;
7359;SDS011;3720;48.274;7.796;2023-08-07T06:38:38;5.75;;;2.30;;
7359;SDS011;3720;48.274;7.796;2023-08-07T06:41:10;2.90;;;1.92;;
7359;SDS011;3720;48.274;7.796;2023-08-07T06:43:43;6.00;;;2.22;;
7359;SDS011;3720;48.274;7.796;2023-08-07T06:46:15;5.15;;;2.42;;
7359;SDS011;3720;48.274;7.796;2023-08-07T06:48:47;4.50;;;2.20;;
7359;SDS011;3720;48.274;7.796;2023-08-07T06:51:19;3.53;;;2.17;;
7359;SDS011;3720;48.274;7.796;2023-08-07T06:53:51;5.57;;;2.17;;
7359;SDS011;3720;48.274;7.796;2023-08-07T06:56:23;5.88;;;2.25;;
7359;SDS011;3720;48.274;7.796;2023-08-07T06:58:56;4.18;;;2.15;;
7359;SDS011;3720;48.274;7.796;2023-08-07T07:01:28;6.60;;;2.22;;
7359;SDS011;3720;48.274;7.796;2023-08-07T07:04:00;6.28;;;2.25;;
7359;SDS011;3720;48.274;7.796;2023-08-07T07:06:32;2.67;;;1.90;;
7359;SDS011;3720;48.274;7.796;2023-08-07T07:09:05;3.47;;;2.08;;
7359;SDS011;3720;48.274;7.796;2023-08-07T07:11:36;4.25;;;1.90;;
7359;SDS011;3720;48.274;7.796;2023-08-07T07:14:10;4.07;;;2.10;;
7359;SDS011;3720;48.274;7.796;2023-08-07T07:16:42;5.15;;;2.00;;
7359;SDS011;3720;48.274;7.796;2023-08-07T07:19:14;3.05;;;1.80;;
7359;SDS011;3720;48.274;7.796;2023-08-07T07:21:46;2.80;;;1.85;;
7359;SDS011;3720;48.274;7.796;2023-08-07T07:24:18;4.50;;;2.10;;
7359;SDS011;3720;48.274;7.796;2023-08-07T07:26:50;2.97;;;1.95;;
7359;SDS011;3720;48.274;7.796;2023-08-07T07:29:24;4.90;;;2.28;;
7359;SDS011;3720;48.274;7.796;2023-08-07T07:31:56;4.85;;;2.10;;
7359;SDS011;3720;48.274;7.796;2023-08-07T07:34:27;3.78;;;1.85;;
7359;SDS011;3720;48.274;7.796;2023-08-07T07:36:59;4.10;;;1.90;;
7359;SDS011;3720;48.274;7.796;2023-08-07T07:39:31;2.40;;;1.77;;
7359;SDS011;3720;48.274;7.796;2023-08-07T07:42:03;4.60;;;1.90;;
7359;SDS011;3720;48.274;7.796;2023-08-07T07:44:38;3.17;;;2.08;;
7359;SDS011;3720;48.274;7.796;2023-08-07T07:47:09;4.22;;;2.13;;
7359;SDS011;3720;48.274;7.796;2023-08-07T07:49:43;2.40;;;1.70;;
7359;SDS011;3720;48.274;7.796;2023-08-07T07:52:16;4.47;;;1.95;;
7359;SDS011;3720;48.274;7.796;2023-08-07T07:54:48;4.63;;;1.80;;
7359;SDS011;3720;48.274;7.796;2023-08-07T07:57:20;3.45;;;1.83;;
7359;SDS011;3720;48.274;7.796;2023-08-07T07:59:53;6.85;;;1.90;;
7359;SDS011;3720;48.274;7.796;2023-08-07T08:02:25;5.32;;;1.90;;
7359;SDS011;3720;48.274;7.796;2023-08-07T08:04:57;5.88;;;1.90;;
7359;SDS011;3720;48.274;7.796;2023-08-07T08:07:28;2.88;;;1.80;;
7359;SDS011;3720;48.274;7.796;2023-08-07T08:10:02;2.38;;;1.65;;
7359;SDS011;3720;48.274;7.796;2023-08-07T08:12:34;3.72;;;1.80;;
7359;SDS011;3720;48.274;7.796;2023-08-07T08:15:08;4.43;;;1.80;;
7359;SDS011;3720;48.274;7.796;2023-08-07T08:17:40;4.10;;;1.80;;
7359;SDS011;3720;48.274;7.796;2023-08-07T08:20:12;3.08;;;1.67;;
7359;SDS011;3720;48.274;7.796;2023-08-07T08:22:45;2.45;;;1.75;;
7359;SDS011;3720;48.274;7.796;2023-08-07T08:25:17;2.60;;;1.77;;
7359;SDS011;3720;48.274;7.796;2023-08-07T08:27:49;2.95;;;1.80;;
7359;SDS011;3720;48.274;7.796;2023-08-07T08:30:23;4.75;;;1.98;;
7359;SDS011;3720;48.274;7.796;2023-08-07T08:32:55;5.38;;;2.30;;
7359;SDS011;3720;48.274;7.796;2023-08-07T08:35:27;4.35;;;2.08;;
7359;SDS011;3720;48.274;7.796;2023-08-07T08:37:59;4.30;;;1.70;;
7359;SDS011;3720;48.274;7.796;2023-08-07T08:40:31;5.60;;;1.90;;
7359;SDS011;3720;48.274;7.796;2023-08-07T08:43:04;3.83;;;1.80;;
7359;SDS011;3720;48.274;7.796;2023-08-07T08:45:38;2.92;;;1.73;;
7359;SDS011;3720;48.274;7.796;2023-08-07T08:48:12;4.22;;;1.80;;
7359;SDS011;3720;48.274;7.796;2023-08-07T08:50:52;3.63;;;1.60;;
7359;SDS011;3720;48.274;7.796;2023-08-07T08:53:24;2.70;;;1.80;;
7359;SDS011;3720;48.274;7.796;2023-08-07T08:55:56;2.97;;;2.00;;
7359;SDS011;3720;48.274;7.796;2023-08-07T08:58:28;3.15;;;1.80;;
7359;SDS011;3720;48.274;7.796;2023-08-07T09:01:01;3.88;;;1.90;;
7359;SDS011;3720;48.274;7.796;2023-08-07T09:03:44;4.30;;;1.65;;
7359;SDS011;3720;48.274;7.796;2023-08-07T09:06:16;2.78;;;1.60;;
7359;SDS011;3720;48.274;7.796;2023-08-07T09:08:49;6.18;;;2.17;;
7359;SDS011;3720;48.274;7.796;2023-08-07T09:11:22;2.63;;;1.60;;
7359;SDS011;3720;48.274;7.796;2023-08-07T09:13:54;2.22;;;1.60;;
7359;SDS011;3720;48.274;7.796;2023-08-07T09:16:29;4.38;;;1.67;;
7359;SDS011;3720;48.274;7.796;2023-08-07T09:19:02;3.13;;;1.70;;
7359;SDS011;3720;48.274;7.796;2023-08-07T09:21:34;3.25;;;1.60;;
7359;SDS011;3720;48.274;7.796;2023-08-07T09:24:06;2.67;;;1.75;;
7359;SDS011;3720;48.274;7.796;2023-08-07T09:26:40;2.45;;;1.60;;
7359;SDS011;3720;48.274;7.796;2023-08-07T09:29:14;2.50;;;1.80;;
7359;SDS011;3720;48.274;7.796;2023-08-07T09:31:48;5.13;;;1.67;;
7359;SDS011;3720;48.274;7.796;2023-08-07T09:34:20;2.88;;;1.60;;
7359;SDS011;3720;48.274;7.796;2023-08-07T09:36:52;3.22;;;1.50;;
7359;SDS011;3720;48.274;7.796;2023-08-07T09:39:24;3.50;;;1.60;;
7359;SDS011;3720;48.274;7.796;2023-08-07T09:41:57;2.75;;;1.63;;
7359;SDS011;3720;48.274;7.796;2023-08-07T09:44:34;2.38;;;1.50;;
7359;SDS011;3720;48.274;7.796;2023-08-07T09:47:12;4.97;;;1.70;;
7359;SDS011;3720;48.274;7.796;2023-08-07T09:49:45;3.13;;;1.60;;
7359;SDS011;3720;48.274;7.796;2023-08-07T09:52:17;2.95;;;1.63;;
7359;SDS011;3720;48.274;7.796;2023-08-07T09:54:50;3.45;;;1.88;;
7359;SDS011;3720;48.274;7.796;2023-08-07T09:57:21;3.83;;;1.58;;
7359;SDS011;3720;48.274;7.796;2023-08-07T09:59:53;1.85;;;1.40;;
7359;SDS011;3720;48.274;7.796;2023-08-07T10:02:27;2.40;;;1.30;;
7359;SDS011;3720;48.274;7.796;2023-08-07T10:04:59;2.17;;;1.58;;
7359;SDS011;3720;48.274;7.796;2023-08-07T10:07:34;1.50;;;1.20;;
7359;SDS011;3720;48.274;7.796;2023-08-07T10:10:07;1.67;;;1.00;;
7359;SDS011;3720;48.274;7.796;2023-08-07T10:12:39;3.78;;;1.40;;
7359;SDS011;3720;48.274;7.796;2023-08-07T10:15:16;2.92;;;1.60;;
7359;SDS011;3720;48.274;7.796;2023-08-07T10:17:50;2.25;;;1.40;;
7359;SDS011;3720;48.274;7.796;2023-08-07T10:20:22;1.85;;;1.10;;
7359;SDS011;3720;48.274;7.796;2023-08-07T10:22:56;1.90;;;1.20;;
7359;SDS011;3720;48.274;7.796;2023-08-07T10:25:31;2.17;;;1.25;;
7359;SDS011;3720;48.274;7.796;2023-08-07T10:28:04;3.83;;;1.40;;
7359;SDS011;3720;48.274;7.796;2023-08-07T10:30:39;1.85;;;1.45;;
7359;SDS011;3720;48.274;7.796;2023-08-07T10:33:14;2.55;;;1.45;;
7359;SDS011;3720;48.274;7.796;2023-08-07T10:35:47;5.32;;;1.52;;
7359;SDS011;3720;48.274;7.796;2023-08-07T10:38:19;2.72;;;1.30;;
7359;SDS011;3720;48.274;7.796;2023-08-07T10:41:00;2.00;;;1.20;;
7359;SDS011;3720;48.274;7.796;2023-08-07T10:43:36;3.50;;;1.38;;
7359;SDS011;3720;48.274;7.796;2023-08-07T10:46:10;3.08;;;1.15;;
7359;SDS011;3720;48.274;7.796;2023-08-07T10:48:45;3.10;;;1.10;;
7359;SDS011;3720;48.274;7.796;2023-08-07T10:51:17;1.83;;;1.23;;
7359;SDS011;3720;48.274;7.796;2023-08-07T10:53:49;5.18;;;1.27;;
7359;SDS011;3720;48.274;7.796;2023-08-07T10:56:29;1.40;;;1.10;;
7359;SDS011;3720;48.274;7.796;2023-08-07T10:59:07;2.00;;;1.27;;
7359;SDS011;3720;48.274;7.796;2023-08-07T11:01:40;2.80;;;1.40;;
7359;SDS011;3720;48.274;7.796;2023-08-07T11:04:14;2.03;;;1.20;;
7359;SDS011;3720;48.274;7.796;2023-08-07T11:06:46;2.05;;;1.40;;
7359;SDS011;3720;48.274;7.796;2023-08-07T11:09:19;1.70;;;1.30;;
7359;SDS011;3720;48.274;7.796;2023-08-07T11:11:51;1.67;;;1.27;;
7359;SDS011;3720;48.274;7.796;2023-08-07T11:14:23;3.35;;;1.50;;
7359;SDS011;3720;48.274;7.796;2023-08-07T11:16:55;1.50;;;1.20;;
7359;SDS011;3720;48.274;7.796;2023-08-07T11:19:29;2.15;;;1.20;;
7359;SDS011;3720;48.274;7.796;2023-08-07T11:22:01;1.13;;;1.00;;
7359;SDS011;3720;48.274;7.796;2023-08-07T11:24:33;2.13;;;1.30;;
7359;SDS011;3720;48.274;7.796;2023-08-07T11:27:05;1.92;;;1.20;;
7359;SDS011;3720;48.274;7.796;2023-08-07T11:29:39;1.75;;;1.35;;
7359;SDS011;3720;48.274;7.796;2023-08-07T11:32:11;1.98;;;1.20;;
7359;SDS011;3720;48.274;7.796;2023-08-07T11:34:48;2.00;;;1.00;;
7359;SDS011;3720;48.274;7.796;2023-08-07T11:37:21;2.07;;;1.20;;
7359;SDS011;3720;48.274;7.796;2023-08-07T11:39:52;1.30;;;1.00;;
7359;SDS011;3720;48.274;7.796;2023-08-07T11:42:31;2.55;;;1.20;;
7359;SDS011;3720;48.274;7.796;2023-08-07T11:45:04;2.60;;;1.10;;
7359;SDS011;3720;48.274;7.796;2023-08-07T11:47:36;1.65;;;1.08;;
7359;SDS011;3720;48.274;7.796;2023-08-07T11:50:10;1.30;;;1.00;;
7359;SDS011;3720;48.274;7.796;2023-08-07T11:52:42;1.70;;;1.10;;
7359;SDS011;3720;48.274;7.796;2023-08-07T11:55:15;3.55;;;1.30;;
7359;SDS011;3720;48.274;7.796;2023-08-07T11:57:46;2.38;;;1.30;;
7359;SDS011;3720;48.274;7.796;2023-08-07T12:00:19;2.35;;;1.20;;
7359;SDS011;3720;48.274;7.796;2023-08-07T12:02:51;2.20;;;1.08;;
7359;SDS011;3720;48.274;7.796;2023-08-07T12:05:24;3.30;;;1.40;;
7359;SDS011;3720;48.274;7.796;2023-08-07T12:07:56;1.50;;;1.30;;
7359;SDS011;3720;48.274;7.796;2023-08-07T12:10:28;3.75;;;1.27;;
7359;SDS011;3720;48.274;7.796;2023-08-07T12:13:00;1.52;;;0.90;;
7359;SDS011;3720;48.274;7.796;2023-08-07T12:15:34;3.42;;;1.30;;
7359;SDS011;3720;48.274;7.796;2023-08-07T12:18:09;3.30;;;1.10;;
7359;SDS011;3720;48.274;7.796;2023-08-07T12:20:43;2.97;;;1.13;;
7359;SDS011;3720;48.274;7.796;2023-08-07T12:23:15;1.77;;;1.02;;
7359;SDS011;3720;48.274;7.796;2023-08-07T12:25:47;2.00;;;1.00;;
7359;SDS011;3720;48.274;7.796;2023-08-07T12:28:19;2.33;;;1.00;;
7359;SDS011;3720;48.274;7.796;2023-08-07T12:30:51;4.13;;;1.20;;
7359;SDS011;3720;48.274;7.796;2023-08-07T12:33:24;2.90;;;1.48;;
7359;SDS011;3720;48.274;7.796;2023-08-07T12:35:57;2.78;;;1.20;;
7359;SDS011;3720;48.274;7.796;2023-08-07T12:38:29;1.95;;;1.02;;
7359;SDS011;3720;48.274;7.796;2023-08-07T12:41:01;3.15;;;1.17;;
7359;SDS011;3720;48.274;7.796;2023-08-07T12:43:33;1.88;;;1.20;;
7359;SDS011;3720;48.274;7.796;2023-08-07T12:46:05;2.58;;;1.33;;
7359;SDS011;3720;48.274;7.796;2023-08-07T12:48:37;1.80;;;1.17;;
7359;SDS011;3720;48.274;7.796;2023-08-07T12:51:10;1.23;;;1.00;;
7359;SDS011;3720;48.274;7.796;2023-08-07T12:53:42;2.22;;;1.00;;
7359;SDS011;3720;48.274;7.796;2023-08-07T12:56:15;2.20;;;1.10;;
7359;SDS011;3720;48.274;7.796;2023-08-07T12:58:47;2.78;;;1.20;;
7359;SDS011;3720;48.274;7.796;2023-08-07T13:01:20;3.03;;;1.20;;
7359;SDS011;3720;48.274;7.796;2023-08-07T13:03:52;1.50;;;1.17;;
7359;SDS011;3720;48.274;7.796;2023-08-07T13:06:25;2.50;;;1.05;;
7359;SDS011;3720;48.274;7.796;2023-08-07T13:08:57;2.25;;;1.20;;
7359;SDS011;3720;48.274;7.796;2023-08-07T13:11:30;2.47;;;1.30;;
7359;SDS011;3720;48.274;7.796;2023-08-07T13:14:02;1.55;;;0.90;;
7359;SDS011;3720;48.274;7.796;2023-08-07T13:16:34;1.83;;;1.30;;
7359;SDS011;3720;48.274;7.796;2023-08-07T13:19:05;1.33;;;1.13;;
7359;SDS011;3720;48.274;7.796;2023-08-07T13:21:39;1.30;;;1.10;;
7359;SDS011;3720;48.274;7.796;2023-08-07T13:24:11;2.10;;;0.85;;
7359;SDS011;3720;48.274;7.796;2023-08-07T13:26:43;2.00;;;1.08;;
7359;SDS011;3720;48.274;7.796;2023-08-07T13:29:15;1.55;;;0.90;;
7359;SDS011;3720;48.274;7.796;2023-08-07T13:31:47;2.40;;;1.00;;
7359;SDS011;3720;48.274;7.796;2023-08-07T13:34:19;2.10;;;0.95;;
7359;SDS011;3720;48.274;7.796;2023-08-07T13:36:53;0.88;;;0.80;;
7359;SDS011;3720;48.274;7.796;2023-08-07T13:39:25;1.85;;;1.10;;
7359;SDS011;3720;48.274;7.796;2023-08-07T13:41:57;1.33;;;0.88;;
7359;SDS011;3720;48.274;7.796;2023-08-07T13:44:30;1.67;;;0.80;;
7359;SDS011;3720;48.274;7.796;2023-08-07T13:47:02;1.40;;;0.85;;
7359;SDS011;3720;48.274;7.796;2023-08-07T13:49:34;2.08;;;1.00;;
7359;SDS011;3720;48.274;7.796;2023-08-07T13:52:08;1.48;;;1.10;;
7359;SDS011;3720;48.274;7.796;2023-08-07T13:54:39;1.40;;;1.05;;
7359;SDS011;3720;48.274;7.796;2023-08-07T13:57:11;2.53;;;0.98;;
7359;SDS011;3720;48.274;7.796;2023-08-07T13:59:43;1.45;;;0.90;;
7359;SDS011;3720;48.274;7.796;2023-08-07T14:02:15;1.70;;;0.90;;
7359;SDS011;3720;48.274;7.796;2023-08-07T14:04:47;1.70;;;0.90;;
7359;SDS011;3720;48.274;7.796;2023-08-07T14:07:20;1.90;;;0.82;;
7359;SDS011;3720;48.274;7.796;2023-08-07T14:09:52;2.10;;;1.10;;
7359;SDS011;3720;48.274;7.796;2023-08-07T14:12:24;3.60;;;1.10;;
7359;SDS011;3720;48.274;7.796;2023-08-07T14:14:57;1.95;;;1.10;;
7359;SDS011;3720;48.274;7.796;2023-08-07T14:17:29;1.38;;;0.90;;
7359;SDS011;3720;48.274;7.796;2023-08-07T14:20:00;2.30;;;1.10;;
7359;SDS011;3720;48.274;7.796;2023-08-07T14:22:36;1.73;;;0.95;;
7359;SDS011;3720;48.274;7.796;2023-08-07T14:25:08;2.25;;;1.13;;
7359;SDS011;3720;48.274;7.796;2023-08-07T14:27:40;1.88;;;1.05;;
7359;SDS011;3720;48.274;7.796;2023-08-07T14:30:12;0.75;;;0.75;;
7359;SDS011;3720;48.274;7.796;2023-08-07T14:32:44;2.00;;;0.90;;
7359;SDS011;3720;48.274;7.796;2023-08-07T14:35:17;1.10;;;0.70;;
7359;SDS011;3720;48.274;7.796;2023-08-07T14:37:50;1.38;;;0.77;;
7359;SDS011;3720;48.274;7.796;2023-08-07T14:40:22;1.35;;;0.80;;
7359;SDS011;3720;48.274;7.796;2023-08-07T14:42:54;2.15;;;0.90;;
7359;SDS011;3720;48.274;7.796;2023-08-07T14:45:26;0.82;;;0.70;;
7359;SDS011;3720;48.274;7.796;2023-08-07T14:47:58;2.53;;;1.00;;
7359;SDS011;3720;48.274;7.796;2023-08-07T14:50:30;1.48;;;0.90;;
7359;SDS011;3720;48.274;7.796;2023-08-07T14:53:03;1.65;;;1.00;;
7359;SDS011;3720;48.274;7.796;2023-08-07T14:55:35;1.98;;;0.93;;
7359;SDS011;3720;48.274;7.796;2023-08-07T14:58:07;4.10;;;1.00;;
7359;SDS011;3720;48.274;7.796;2023-08-07T15:00:39;2.00;;;0.98;;
7359;SDS011;3720;48.274;7.796;2023-08-07T15:03:11;2.28;;;0.98;;
7359;SDS011;3720;48.274;7.796;2023-08-07T15:05:43;1.25;;;0.95;;
7359;SDS011;3720;48.274;7.796;2023-08-07T15:08:16;2.83;;;1.00;;
7359;SDS011;3720;48.274;7.796;2023-08-07T15:10:50;1.92;;;1.00;;
7359;SDS011;3720;48.274;7.796;2023-08-07T15:13:22;3.55;;;1.20;;
7359;SDS011;3720;48.274;7.796;2023-08-07T15:15:55;2.05;;;1.00;;
7359;SDS011;3720;48.274;7.796;2023-08-07T15:18:27;3.10;;;1.30;;
7359;SDS011;3720;48.274;7.796;2023-08-07T15:20:58;1.42;;;0.90;;
7359;SDS011;3720;48.274;7.796;2023-08-07T15:23:33;1.45;;;0.90;;
7359;SDS011;3720;48.274;7.796;2023-08-07T15:26:05;2.80;;;1.00;;
7359;SDS011;3720;48.274;7.796;2023-08-07T15:28:37;1.25;;;0.90;;
7359;SDS011;3720;48.274;7.796;2023-08-07T15:31:09;1.58;;;0.90;;
7359;SDS011;3720;48.274;7.796;2023-08-07T15:33:41;1.08;;;0.80;;
7359;SDS011;3720;48.274;7.796;2023-08-07T15:36:19;1.02;;;0.90;;
7359;SDS011;3720;48.274;7.796;2023-08-07T15:38:52;1.65;;;0.90;;
7359;SDS011;3720;48.274;7.796;2023-08-07T15:41:24;1.80;;;0.90;;
7359;SDS011;3720;48.274;7.796;2023-08-07T15:43:56;2.17;;;1.17;;
7359;SDS011;3720;48.274;7.796;2023-08-07T15:46:28;1.77;;;0.98;;
7359;SDS011;3720;48.274;7.796;2023-08-07T15:49:00;1.50;;;0.90;;